Flight Track Log - Related Links

Times and Time Zones

All times are in EDT time to prevent confusion due to time zone crossing. See the N76XX flight status page for this flight to view local times or setup timezone preferences in your user account.

Time Position Orientation Groundspeed Altitude Reporting Facility
EDT Latitude Longitude Course Direction KTS MPH feet Rate Location/Type
10:40AM 41.5508 -70.5492 245° Southwest 155 178 1,900  Level Boston Center
10:41AM 41.5342 -70.6019 247° West 155 178 1,900  Level Boston Center
10:42AM 41.5144 -70.6603 246° West 155 178 1,900  Level Boston Center
10:43AM 41.4967 -70.7117 245° Southwest 153 176 1,900  Level Boston Center
10:44AM 41.5796 -70.5106 245° Southwest  Level FlightAware Approximate
10:44AM 41.4772 -70.7681 245° Southwest 154 177 1,900  Level Boston Center
10:48AM 41.4239 -70.9258 244° Southwest 151 174 1,900  Level Boston Center
10:48AM 41.4108 -70.9572 241° Southwest 154 177 1,900  Level Boston Center
10:49AM 41.4058 -70.9767 251° West 153 176 1,900  Level Boston Center
10:49AM 41.3942 -71.0086 244° Southwest 151 174 1,900 28 Level Boston Center
10:52AM 41.3425 -71.1564 245° Southwest 148 170 2,000  Climbing Boston Center
10:53AM 41.3697 -71.1002 244° Southwest  Level FlightAware Approximate
10:53AM 41.3344 -71.1836 248° West 154 177 1,900  Level Boston Center
10:53AM 41.3256 -71.2075 244° Southwest 151 174 1,900  Level Boston Center
10:54AM 41.3167 -71.2364 248° West 150 173 1,900 25 Level Boston Center
10:57AM 41.2569 -71.4061 244° Southwest 150 173 2,000 24 Climbing Boston Center
10:58AM 41.2456 -71.4417 247° West 150 173 2,000  Level Boston Center
10:58AM 41.2372 -71.4592 238° Southwest 147 169 2,000  Level Boston Center
11:01AM 41.1825 -71.6194 242° Southwest 160 184 2,000  Level Boston Center
11:02AM 41.1764 -71.6411 249° West 147 169 2,000  Level Boston Center
11:04AM 41.1456 -71.7276 245° Southwest  Level Estimated
11:07AM 41.0683 -71.9126 242° Southwest  Level FlightAware Approximate
11:11AM 41.0667 -71.9167 242° Southwest  Level FlightAware Approximate
11:12AM 41.0767 -71.9205 143° Southeast  Level Estimated
11:13AM 41.0767 -71.9205 242° Southwest  Level Estimated
11:14AM 41.0767 -71.9205 164° South  Level Estimated
11:15AM 41.0767 -71.9205 242° Southwest  Level Estimated
11:16AM 41.0767 -71.9205 164° South  Level Estimated
11:17AM 41.0767 -71.9205 242° Southwest  Level Estimated
11:18AM 41.0767 -71.9205 164° South  Level Estimated
11:19AM 41.0767 -71.9205 242° Southwest  Level Estimated
11:20AM 41.0767 -71.9205 164° South  Level Estimated
11:21AM 41.0767 -71.9205 242° Southwest  Level Estimated
11:22AM 41.0767 -71.9205 164° South  Level Estimated
11:23AM 41.0767 -71.9205 242° Southwest  Level Estimated

Login

Don't have an account? Register now (free) for customized features, flight alerts, and more!